Latest Weather Observations for King Island Airport

IDT60801

Issued at 9:01 pm EDT Sunday 14 February 2016 (issued every 30 minutes, with the page automatically refreshed every 10 minutes)

About weather observations | Map of weather stations | Latest weather observations for TAS | Other Formats
Station Details ID: 098017 Name: KING ISLAND AIRPORT Lat: -39.88 Lon: 143.88 Height: 37.0 m
Data from the previous 72 hours. | See also: Recent months at King Island Airport
Date/Time
EDT
Temp
°C
App
Temp
°C
Dew
Point
Rel
Hum
%
Delta-T
°C
Wind Press
QNH
hPa
Press
MSL
hPa
Rain
since 9 am
mm
Dir
 
Spd
km/h
Gust
km/h
Spd
kts
Gust
kts
14/09:00pm 15.5 10.4 10.7 73 2.5 SW 28 39 15 21 1012.6 1012.5 0.0
14/08:30pm 16.1 12.5 10.4 69 3.0 WSW 20 32 11 17 1012.3 1012.2 0.0
14/08:00pm 16.2 11.5 10.5 69 3.0 SW 26 35 14 19 1012.0 1011.9 0.0
14/07:30pm 16.9 12.8 10.1 64 3.6 W 22 30 12 16 1011.7 1011.6 0.0
14/07:00pm 17.3 12.4 10.0 62 3.9 WSW 26 33 14 18 1011.6 1011.5 0.0
14/06:30pm 16.9 10.8 9.8 63 3.7 WSW 32 46 17 25 1011.6 1011.5 0.0
14/06:20pm 17.0 11.5 9.2 60 4.1 WSW 28 48 15 26 1011.6 1011.5 0.0
14/06:00pm 18.0 12.2 9.4 57 4.5 WSW 30 37 16 20 1011.3 1011.2 0.0
14/05:30pm 18.6 12.2 9.4 55 4.8 WSW 33 43 18 23 1011.1 1011.0 0.0
14/05:00pm 18.2 11.8 9.3 56 4.7 WSW 33 46 18 25 1011.0 1010.9 0.0
14/04:30pm 18.6 12.1 10.4 59 4.4 WSW 35 48 19 26 1010.9 1010.8 0.0
14/04:28pm 18.4 11.9 10.5 60 4.2 WSW 35 54 19 29 1010.9 1010.8 0.0
14/04:00pm 19.1 12.3 11.9 63 4.0 WSW 39 50 21 27 1010.9 1010.8 0.0
14/03:30pm 18.3 12.4 12.3 68 3.3 WSW 35 52 19 28 1010.6 1010.5 0.0
14/03:00pm 19.3 12.2 10.8 58 4.6 W 39 50 21 27 1010.4 1010.3 0.0
14/02:30pm 19.4 14.0 12.7 65 3.8 W 33 43 18 23 1010.3 1010.2 0.0
14/02:00pm 17.8 12.7 12.0 69 3.2 WSW 30 46 16 25 1010.3 1010.2 0.0
14/01:40pm 17.9 12.1 12.6 71 3.0 W 35 61 19 33 1010.2 1010.1 0.0
14/01:30pm 19.1 13.4 11.9 63 4.0 W 33 50 18 27 1010.1 1010.0 0.0
14/01:11pm 17.7 10.7 12.4 71 2.9 W 41 59 22 32 1010.1 1010.0 0.0
14/01:00pm 17.5 9.8 11.5 68 3.3 WSW 43 59 23 32 1009.9 1009.9 0.0
14/12:48pm 20.4 14.1 12.4 60 4.5 W 37 56 20 30 1009.6 1009.6 0.0
14/12:30pm 19.9 13.6 10.9 56 4.9 W 35 52 19 28 1009.8 1009.8 0.0
14/12:00pm 19.6 12.6 11.1 58 4.7 W 39 54 21 29 1009.7 1009.7 0.0
14/11:30am 20.0 13.2 10.7 55 5.1 W 37 54 20 29 1009.7 1009.7 0.0
14/11:25am 19.7 13.4 11.2 58 4.7 W 35 54 19 29 1009.7 1009.7 0.0
14/11:00am 19.8 13.4 13.3 66 3.7 WNW 39 50 21 27 1009.7 1009.7 0.0
14/10:45am 19.2 13.5 11.0 59 4.5 W 32 52 17 28 1009.6 1009.6 0.0
14/10:30am 19.6 13.4 11.4 59 4.5 W 35 52 19 28 1009.6 1009.6 0.0
14/10:00am 18.9 12.4 10.2 57 4.7 W 35 48 19 26 1009.4 1009.4 0.0
14/09:30am 18.9 13.4 12.4 66 3.6 W 33 43 18 23 1009.3 1009.3 0.0
14/09:00am 17.5 12.5 12.2 71 2.9 W 30 43 16 23 1009.2 1009.2 0.6
14/08:30am 17.0 10.8 11.5 70 3.0 W 35 52 19 28 1008.8 1008.8 0.6
14/08:22am 17.6 12.7 12.7 73 2.7 W 30 52 16 28 1008.7 1008.7 0.6
14/08:00am 17.4 11.4 10.8 65 3.6 W 33 48 18 26 1008.5 1008.5 0.6
14/07:30am 17.0 11.0 10.8 67 3.3 W 33 50 18 27 1008.3 1008.3 0.6
14/07:26am 17.2 11.5 11.0 67 3.3 W 32 50 17 27 1008.3 1008.3 0.6
14/07:00am 16.7 11.1 10.1 65 3.5 W 30 39 16 21 1008.1 1008.1 0.6
14/06:30am 16.7 10.5 9.9 64 3.6 W 33 46 18 25 1007.7 1007.7 0.6
14/06:00am 16.6 10.5 9.8 64 3.6 W 32 43 17 23 1007.4 1007.4 0.6
14/05:30am 16.7 10.9 10.8 68 3.2 W 32 39 17 21 1007.2 1007.2 0.6
14/05:00am 16.6 11.7 12.4 76 2.3 WNW 30 41 16 22 1006.9 1006.9 0.6
14/04:34am 16.7 12.0 12.0 74 2.6 WNW 28 46 15 25 1006.9 1006.9 0.6
14/04:30am 16.5 12.1 11.6 73 2.7 WNW 26 33 14 18 1006.9 1006.9 0.6
14/04:00am 16.0 11.0 12.2 78 2.1 WNW 30 39 16 21 1007.2 1007.2 0.6
14/03:30am 17.1 12.2 11.2 68 3.2 W 28 35 15 19 1007.3 1007.3 0.6
14/03:00am 16.7 11.5 10.3 66 3.4 W 28 39 15 21 1007.6 1007.6 0.6
14/02:30am 16.7 11.8 11.4 71 2.9 W 28 37 15 20 1007.6 1007.6 0.6
14/02:00am 16.6 11.5 10.7 68 3.2 W 28 37 15 20 1007.8 1007.8 0.6
14/01:30am 16.5 11.1 10.8 69 3.0 W 30 39 16 21 1007.9 1007.9 0.6
14/01:00am 17.0 12.9 11.3 69 3.1 W 24 37 13 20 1008.0 1008.0 0.6
14/12:30am 16.6 10.9 11.3 71 2.9 W 32 44 17 24 1008.1 1008.1 0.6
14/12:00am 16.9 12.2 10.7 67 3.3 W 26 32 14 17 1008.3 1008.3 0.6
 
Date/Time
EDT
Temp
°C
App
Temp
°C
Dew
Point
Rel
Hum
%
Delta-T
°C
Wind Press
QNH
hPa
Press
MSL
hPa
Rain
since 9 am
mm
Dir
 
Spd
km/h
Gust
km/h
Spd
kts
Gust
kts
13/11:30pm 16.8 12.4 10.4 66 3.4 WSW 24 35 13 19 1008.5 1008.5 0.6
13/11:00pm 16.8 12.0 11.7 72 2.8 WSW 28 39 15 21 1008.8 1008.8 0.6
13/10:30pm 16.9 11.3 11.4 70 3.0 W 32 44 17 24 1008.8 1008.8 0.6
13/10:00pm 17.1 12.1 10.9 67 3.3 W 28 39 15 21 1008.7 1008.7 0.6
13/09:30pm 17.5 12.1 14.0 80 2.0 W 35 48 19 26 1008.5 1008.5 0.4
13/09:27pm 17.5 12.8 14.4 82 1.8 W 32 48 17 26 1008.5 1008.5 0.4
13/09:00pm 18.3 15.7 13.8 75 2.6 W 20 30 11 16 1008.1 1008.1 0.4
13/08:30pm 18.3 16.5 14.4 78 2.3 W 17 26 9 14 1007.8 1007.8 0.4
13/08:00pm 18.4 15.9 14.1 76 2.5 WSW 20 28 11 15 1007.6 1007.6 0.4
13/07:30pm 18.5 16.0 15.2 81 1.9 WSW 22 30 12 16 1007.2 1007.2 0.4
13/07:00pm 18.3 15.6 15.6 84 1.6 WSW 24 33 13 18 1007.1 1007.1 0.4
13/06:30pm 18.2 15.5 15.5 84 1.6 W 24 33 13 18 1007.0 1007.0 0.4
13/06:00pm 18.5 16.1 16.3 87 1.3 W 24 37 13 20 1007.0 1007.0 0.4
13/05:30pm 18.4 16.1 16.6 89 1.1 W 24 32 13 17 1007.0 1007.0 0.2
13/05:24pm 18.4 15.5 16.2 87 1.3 W 26 35 14 19 1007.0 1007.0 0.0
13/05:00pm 18.9 16.1 16.3 85 1.6 W 26 35 14 19 1007.0 1007.0 0.0
13/04:53pm 19.2 16.5 17.5 90 1.0 WNW 28 41 15 22 1007.0 1007.0 0.0
13/04:30pm 20.9 16.9 16.7 77 2.6 WNW 33 43 18 23 1006.8 1006.8 0.0
13/04:00pm 21.0 16.7 16.8 77 2.6 WNW 35 41 19 22 1007.2 1007.2 0.0
13/03:30pm 21.4 17.2 16.1 72 3.2 WNW 33 41 18 22 1007.3 1007.3 0.0
13/03:00pm 21.8 17.5 15.9 69 3.6 WNW 33 44 18 24 1007.4 1007.4 0.0
13/02:30pm 21.8 17.6 16.1 70 3.4 WNW 33 41 18 22 1007.5 1007.5 0.0
13/02:00pm 21.6 17.5 15.9 70 3.4 WNW 32 41 17 22 1007.7 1007.7 0.0
13/01:30pm 19.6 17.5 16.3 81 2.0 WNW 22 32 12 17 1007.8 1007.8 0.0
13/01:00pm 19.4 16.1 15.1 76 2.5 WNW 26 35 14 19 1008.0 1008.0 0.0
13/12:30pm 20.6 17.4 15.2 71 3.2 WNW 26 32 14 17 1008.0 1008.0 0.0
13/12:00pm 20.6 17.2 14.7 69 3.5 NW 26 32 14 17 1007.9 1007.9 0.0
13/11:30am 21.0 18.1 15.1 69 3.5 WNW 24 32 13 17 1008.1 1008.1 0.0
13/11:00am 20.8 17.8 14.9 69 3.5 W 24 32 13 17 1008.3 1008.3 0.0
13/10:30am 20.7 18.1 15.0 70 3.4 W 22 28 12 15 1008.2 1008.2 0.0
13/10:00am 20.1 18.0 15.1 73 3.0 W 20 28 11 15 1008.2 1008.2 0.0
13/09:30am 19.4 17.5 15.1 76 2.5 W 19 28 10 15 1008.2 1008.2 0.0
13/09:00am 18.7 16.4 15.6 82 1.8 WSW 22 32 12 17 1008.3 1008.3 0.0
13/08:37am 18.2 16.3 15.8 86 1.4 WSW 20 30 11 16 1008.3 1008.3 0.0
13/08:30am 18.3 16.5 16.1 87 1.3 WSW 20 30 11 16 1008.3 1008.3 0.0
13/08:00am 17.4 17.4 17.2 99 0.1 W 13 20 7 11 1007.9 1007.9 0.0
13/07:35am 14.7 16.1 14.5 99 0.1 CALM 0 7 0 4 1007.6 1007.6 0.0
13/07:30am 14.8 16.3 14.6 99 0.1 CALM 0 0 0 0 1007.6 1007.6 0.0
13/07:00am 13.8 14.9 13.6 99 0.1 CALM 0 0 0 0 1007.6 1007.6 0.0
13/06:30am 12.1 11.5 11.8 98 0.2 E 6 7 3 4 1007.4 1007.4 0.0
13/06:03am 12.4 11.9 11.9 97 0.3 ESE 6 7 3 4 1007.3 1007.3 0.0
13/06:01am 12.7 12.7 12.4 98 0.2 ESE 4 7 2 4 1007.3 1007.3 0.0
13/06:00am 12.7 13.1 12.4 98 0.2 ESE 2 7 1 4 1007.3 1007.3 0.0
13/05:34am 11.5 11.0 10.9 96 0.3 ESE 4 7 2 4 1007.3 1007.3 0.0
13/05:30am 11.4 11.3 10.8 96 0.3 ESE 2 7 1 4 1007.3 1007.3 0.0
13/05:13am 14.2 15.4 13.9 98 0.2 CALM 0 0 0 0 1007.5 1007.5 0.0
13/05:00am 13.7 14.8 13.4 98 0.2 CALM 0 0 0 0 1007.7 1007.7 0.0
13/04:30am 12.1 12.5 11.2 94 0.5 CALM 0 0 0 0 1007.6 1007.6 0.0
13/04:00am 14.2 15.4 13.7 97 0.3 CALM 0 4 0 2 1007.9 1007.9 0.0
13/03:30am 14.2 14.0 13.7 97 0.3 E 7 7 4 4 1008.1 1008.1 0.0
13/03:00am 13.5 13.3 12.9 96 0.3 E 6 7 3 4 1008.5 1008.5 0.0
13/02:30am 14.0 13.7 13.2 95 0.4 ESE 7 7 4 4 1009.0 1009.0 0.0
13/02:00am 13.4 12.5 12.5 94 0.5 E 9 11 5 6 1009.2 1009.2 0.0
13/01:30am 14.1 13.7 13.0 93 0.6 E 7 9 4 5 1009.8 1009.8 0.0
13/01:00am 13.9 13.5 13.0 94 0.5 NE 7 7 4 4 1010.1 1010.0 0.0
13/12:30am 13.0 12.0 12.2 95 0.4 NE 9 9 5 5 1010.2 1010.1 0.0
13/12:00am 11.6 9.8 10.8 95 0.4 ENE 11 13 6 7 1010.6 1010.5 0.0
 
Date/Time
EDT
Temp
°C
App
Temp
°C
Dew
Point
Rel
Hum
%
Delta-T
°C
Wind Press
QNH
hPa
Press
MSL
hPa
Rain
since 9 am
mm
Dir
 
Spd
km/h
Gust
km/h
Spd
kts
Gust
kts
12/11:30pm 12.0 11.1 11.2 95 0.4 NE 7 9 4 5 1010.9 1010.8 0.0
12/11:00pm 11.7 10.2 10.6 93 0.6 ENE 9 9 5 5 1011.2 1011.1 0.0
12/10:30pm 12.4 11.5 10.6 89 0.9 NE 6 9 3 5 1011.5 1011.4 0.0
12/10:00pm 14.8 15.6 12.7 87 1.2 CALM 0 0 0 0 1011.7 1011.6 0.0
12/09:30pm 15.3 16.1 12.4 83 1.6 CALM 0 0 0 0 1011.7 1011.6 0.0
12/09:00pm 16.4 17.3 12.8 79 2.0 CALM 0 0 0 0 1011.9 1011.8 0.0
12/08:30pm 16.8 16.3 12.7 77 2.3 S 7 9 4 5 1012.3 1012.2 0.0
12/08:00pm 17.8 16.6 12.9 73 2.7 SSW 11 13 6 7 1012.7 1012.6 0.0
12/07:30pm 18.2 16.6 12.9 71 3.0 SW 13 15 7 8 1012.6 1012.5 0.0
12/07:00pm 18.9 17.2 12.6 67 3.5 SW 13 15 7 8 1012.7 1012.6 0.0
12/06:30pm 19.6 18.7 12.6 64 3.9 SW 9 13 5 7 1012.9 1012.8 0.0
12/06:00pm 19.5 18.5 12.3 63 4.0 SW 9 15 5 8 1013.1 1013.0 0.0
12/05:30pm 19.0 16.5 12.3 65 3.7 W 17 24 9 13 1013.7 1013.6 0.0
12/05:00pm 19.4 16.3 12.2 63 4.0 W 20 28 11 15 1014.1 1014.0 0.0
12/04:30pm 19.9 17.2 12.9 64 4.0 W 19 26 10 14 1014.0 1013.9 0.0
12/04:00pm 20.2 18.6 12.7 62 4.2 WSW 13 17 7 9 1014.0 1013.9 0.0
12/03:30pm 19.9 17.2 12.9 64 4.0 W 19 28 10 15 1014.5 1014.4 0.0
12/03:00pm 20.1 17.3 12.6 62 4.2 W 19 28 10 15 1014.8 1014.7 0.0
12/02:30pm 20.2 17.6 13.2 64 4.0 WSW 19 28 10 15 1014.9 1014.8 0.0
12/02:00pm 20.0 17.3 13.0 64 4.0 WSW 19 28 10 15 1015.1 1015.0 0.0
12/01:30pm 19.6 16.6 12.4 63 4.0 WSW 20 30 11 16 1015.3 1015.2 0.0
12/01:00pm 20.3 18.5 13.3 64 4.0 SW 15 30 8 16 1015.5 1015.4 0.0
12/12:30pm 20.5 19.2 13.7 65 3.9 SSW 13 26 7 14 1015.6 1015.5 0.0
12/12:00pm 19.7 17.3 12.5 63 4.0 SSW 17 28 9 15 1016.4 1016.3 0.0
12/11:30am 18.8 17.5 12.5 67 3.5 SW 11 19 6 10 1016.7 1016.6 0.0
12/11:00am 19.0 17.3 12.3 65 3.7 S 13 19 7 10 1016.9 1016.8 0.0
12/10:30am 18.9 16.6 11.7 63 4.0 S 15 22 8 12 1017.3 1017.2 0.0
12/10:00am 18.3 15.6 11.8 66 3.6 SSW 17 28 9 15 1017.3 1017.2 0.0
12/09:30am 18.0 15.7 11.8 67 3.4 SSW 15 20 8 11 1017.4 1017.3 0.0
12/09:00am 17.5 15.7 12.2 71 2.9 SSW 13 17 7 9 1017.6 1017.5 0.0
12/08:30am 16.2 17.2 13.3 83 1.6 CALM 0 0 0 0 1017.5 1017.4 0.0
12/08:00am 12.9 13.3 11.3 90 0.8 CALM 0 0 0 0 1017.4 1017.3 0.0
12/07:30am 11.7 10.9 11.1 96 0.3 SSE 6 7 3 4 1017.2 1017.1 0.0
12/07:00am 9.1 8.8 8.5 96 0.3 CALM 0 0 0 0 1016.9 1016.8 0.0
12/06:30am 9.8 9.6 9.2 96 0.3 CALM 0 0 0 0 1016.6 1016.5 0.0
12/06:00am 10.2 10.2 9.7 97 0.3 CALM 0 0 0 0 1016.6 1016.5 0.0
12/05:30am 9.4 9.1 8.8 96 0.3 CALM 0 0 0 0 1016.6 1016.5 0.0
12/05:00am 8.8 8.3 7.7 93 0.5 CALM 0 0 0 0 1016.9 1016.8 0.0
12/04:30am 10.5 10.5 9.7 95 0.4 CALM 0 0 0 0 1017.1 1017.0 0.0
12/04:00am 9.8 9.5 8.7 93 0.5 CALM 0 0 0 0 1017.0 1016.9 0.0
12/03:30am 10.7 10.2 9.5 92 0.6 SSE 2 7 1 4 1017.4 1017.3 0.0
12/03:00am 10.5 10.5 9.7 95 0.4 CALM 0 0 0 0 1017.5 1017.4 0.0
12/02:30am 10.8 10.7 9.6 92 0.6 CALM 0 0 0 0 1018.0 1017.9 0.0
12/02:00am 12.9 11.6 11.3 90 0.8 SSW 9 9 5 5 1018.2 1018.1 0.0
12/01:30am 12.0 12.1 10.2 89 0.9 CALM 0 0 0 0 1018.4 1018.3 0.0
12/01:00am 12.5 12.7 10.4 87 1.1 CALM 0 0 0 0 1018.6 1018.5 0.0
12/12:30am 13.6 12.4 11.5 87 1.1 SSE 9 11 5 6 1018.5 1018.4 0.0
12/12:00am 13.7 12.8 11.4 86 1.2 S 7 9 4 5 1018.7 1018.6 0.0
 
Date/Time
EDT
Temp
°C
App
Temp
°C
Dew
Point
Rel
Hum
%
Delta-T
°C
Wind Press
QNH
hPa
Press
MSL
hPa
Rain
since 9 am
mm
Dir
 
Spd
km/h
Gust
km/h
Spd
kts
Gust
kts
11/11:30pm 13.8 12.6 11.5 86 1.2 SSE 9 11 5 6 1018.8 1018.7 0.0
11/11:00pm 13.4 12.1 11.3 87 1.1 SSE 9 11 5 6 1018.9 1018.8 0.0
11/10:30pm 13.7 12.9 11.6 87 1.1 SSE 7 11 4 6 1018.8 1018.7 0.0
11/10:00pm 14.1 12.6 12.0 87 1.1 SSE 11 13 6 7 1018.5 1018.4 0.0
11/09:30pm 14.7 13.3 12.2 85 1.4 S 11 15 6 8 1018.3 1018.2 0.0

Other Formats:

Comma delimited format used in spreadsheet applications
http://www.bom.gov.au/fwo/IDT60801/IDT60801.94850.axf

JavaScript Object Notation format (JSON) in row-major order
http://www.bom.gov.au/fwo/IDT60801/IDT60801.94850.json